Time;durP1;ratioP1;P1;durP2;ratioP2;P2;SDS_P1;SDS_P2;PMS_P1;PMS_P2;Temp;Humidity;BMP_temperature;BMP_pressure;BME280_temperature;BME280_humidity;BME280_pressure;Samples;Min_cycle;Max_cycle;Signal;HPM_P1;HPM_P2
2022/11/18 00:01:26;;;;;;;51.65;16.40;;;;;;;;;;6263367;28;20057;-62
2022/11/18 00:04:26;;;;;;;45.72;14.50;;;;;;;;;;6259859;28;20119;-62
2022/11/18 00:07:27;;;;;;;51.80;17.02;;;;;;;;;;6253623;28;20585;-62
2022/11/18 00:10:27;;;;;;;53.65;17.52;;;;;;;;;;6249220;28;20056;-62
2022/11/18 00:16:55;;;;;;;48.42;17.58;;;;;;;;;;6269264;28;20057;-61
2022/11/18 00:19:56;;;;;;;47.55;15.80;;;;;;;;;;6256146;28;20041;-61
2022/11/18 00:22:57;;;;;;;53.97;17.33;;;;;;;;;;6252148;28;20557;-62
2022/11/18 00:26:02;;;;;;;57.10;17.80;;;;;;;;;;6251909;28;20084;-61
2022/11/18 00:29:03;;;;;;;54.92;17.08;;;;;;;;;;6261338;28;20045;-62
2022/11/18 00:32:04;;;;;;;47.70;16.92;;;;;;;;;;6252516;28;20063;-61
2022/11/18 00:35:05;;;;;;;51.55;16.92;;;;;;;;;;6251544;28;20132;-62
2022/11/18 00:38:06;;;;;;;45.95;15.73;;;;;;;;;;6251100;28;20091;-61
2022/11/18 00:41:09;;;;;;;53.35;16.77;;;;;;;;;;6261433;28;20057;-62
2022/11/18 00:44:09;;;;;;;52.75;18.08;;;;;;;;;;6260093;28;20072;-62
2022/11/18 00:47:10;;;;;;;48.55;16.73;;;;;;;;;;6259313;28;20053;-62
2022/11/18 00:50:11;;;;;;;49.60;17.40;;;;;;;;;;6264556;28;20072;-62
2022/11/18 00:53:11;;;;;;;46.20;17.15;;;;;;;;;;6252359;28;20049;-62
2022/11/18 00:56:12;;;;;;;49.22;15.73;;;;;;;;;;6249207;28;20132;-61
2022/11/18 00:59:12;;;;;;;48.05;18.17;;;;;;;;;;6247122;28;20665;-62
2022/11/18 01:02:13;;;;;;;48.72;16.17;;;;;;;;;;6261349;28;20048;-63
2022/11/18 01:05:14;;;;;;;42.95;14.25;;;;;;;;;;6257537;28;20468;-62
2022/11/18 01:08:14;;;;;;;43.05;13.93;;;;;;;;;;6257790;28;20045;-61
2022/11/18 01:14:34;;;;;;;41.03;13.43;;;;;;;;;;6251600;28;20049;-62
2022/11/18 01:17:34;;;;;;;35.67;12.23;;;;;;;;;;6262152;28;20078;-61
2022/11/18 01:20:36;;;;;;;37.92;12.50;;;;;;;;;;6260537;28;20121;-61
2022/11/18 01:23:36;;;;;;;41.35;13.40;;;;;;;;;;6255127;28;20045;-61
2022/11/18 01:26:37;;;;;;;33.92;11.65;;;;;;;;;;6251907;28;20079;-62
2022/11/18 01:29:37;;;;;;;36.22;12.98;;;;;;;;;;6263648;28;20053;-62
2022/11/18 01:32:38;;;;;;;38.72;12.98;;;;;;;;;;6257091;28;20710;-62
2022/11/18 01:35:41;;;;;;;32.03;11.18;;;;;;;;;;6249754;28;20048;-62
2022/11/18 01:38:42;;;;;;;35.95;12.23;;;;;;;;;;6249219;28;20045;-62
2022/11/18 01:41:42;;;;;;;36.35;12.15;;;;;;;;;;6246794;28;20438;-62
2022/11/18 01:45:14;;;;;;;39.97;12.13;;;;;;;;;;6265780;28;20488;-62
2022/11/18 01:48:25;;;;;;;35.90;12.60;;;;;;;;;;6254375;28;20137;-61
2022/11/18 01:51:33;;;;;;;34.30;12.25;;;;;;;;;;6250682;28;20358;-62
2022/11/18 01:54:39;;;;;;;39.42;11.88;;;;;;;;;;6249750;28;20400;-63
2022/11/18 01:57:41;;;;;;;34.45;11.13;;;;;;;;;;6245230;28;20050;-62
2022/11/18 02:00:41;;;;;;;34.67;12.43;;;;;;;;;;6250692;28;20053;-62
2022/11/18 02:03:45;;;;;;;36.28;12.10;;;;;;;;;;6249406;28;20059;-62
2022/11/18 02:06:46;;;;;;;34.28;11.77;;;;;;;;;;6248026;28;20049;-62
2022/11/18 02:09:47;;;;;;;35.33;12.38;;;;;;;;;;6248899;28;20060;-61
2022/11/18 02:12:49;;;;;;;31.02;10.77;;;;;;;;;;6248200;28;20423;-62
2022/11/18 02:16:07;;;;;;;35.22;12.45;;;;;;;;;;6248890;28;20045;-62
2022/11/18 02:19:27;;;;;;;36.17;13.93;;;;;;;;;;6250913;28;20057;-61
2022/11/18 02:23:06;;;;;;;38.45;12.98;;;;;;;;;;6248286;28;20041;-62
2022/11/18 02:26:32;;;;;;;33.85;11.98;;;;;;;;;;6256337;28;20042;-62
2022/11/18 02:29:41;;;;;;;36.65;11.45;;;;;;;;;;6249697;28;20107;-63
2022/11/18 02:32:52;;;;;;;40.30;12.45;;;;;;;;;;6247256;28;20073;-62
2022/11/18 02:35:57;;;;;;;33.42;12.52;;;;;;;;;;6247433;28;20048;-63
2022/11/18 02:39:03;;;;;;;41.42;13.45;;;;;;;;;;6240157;28;20067;-61
2022/11/18 02:42:09;;;;;;;34.13;13.27;;;;;;;;;;6250229;28;20045;-61
2022/11/18 02:45:16;;;;;;;38.00;13.05;;;;;;;;;;6248281;28;20554;-61
2022/11/18 02:48:19;;;;;;;36.55;14.50;;;;;;;;;;6249838;28;20493;-62
2022/11/18 02:51:23;;;;;;;38.38;13.52;;;;;;;;;;6242455;28;20053;-61
2022/11/18 02:54:26;;;;;;;40.30;14.80;;;;;;;;;;6248253;28;20559;-62
2022/11/18 02:57:29;;;;;;;38.58;13.75;;;;;;;;;;6246316;28;20052;-61
2022/11/18 03:00:31;;;;;;;32.92;12.68;;;;;;;;;;6246824;28;20155;-61
2022/11/18 03:03:35;;;;;;;34.38;12.40;;;;;;;;;;6247933;28;20492;-62
2022/11/18 03:06:39;;;;;;;36.35;12.90;;;;;;;;;;6251230;28;20057;-61
2022/11/18 03:09:42;;;;;;;41.97;14.25;;;;;;;;;;6253452;28;20084;-62
2022/11/18 03:13:06;;;;;;;44.30;14.95;;;;;;;;;;6251821;28;20049;-61
2022/11/18 03:16:15;;;;;;;34.85;12.45;;;;;;;;;;6253243;28;20061;-62
2022/11/18 03:19:21;;;;;;;35.78;13.63;;;;;;;;;;6251743;28;20492;-62
2022/11/18 03:22:27;;;;;;;42.05;14.30;;;;;;;;;;6253529;28;20057;-62
2022/11/18 03:26:01;;;;;;;41.90;12.65;;;;;;;;;;6253533;28;20498;-63
2022/11/18 03:29:11;;;;;;;39.15;13.02;;;;;;;;;;6252909;28;20049;-61
2022/11/18 03:32:17;;;;;;;36.75;13.75;;;;;;;;;;6249936;28;20102;-63
2022/11/18 03:35:22;;;;;;;37.47;12.95;;;;;;;;;;6254010;28;20112;-62
2022/11/18 03:38:28;;;;;;;37.85;13.68;;;;;;;;;;6255014;28;20056;-61
2022/11/18 03:41:34;;;;;;;40.40;13.48;;;;;;;;;;6254410;28;20102;-62
2022/11/18 03:44:39;;;;;;;32.78;11.30;;;;;;;;;;6241879;28;20047;-62
2022/11/18 03:47:45;;;;;;;34.30;12.23;;;;;;;;;;6250034;28;20115;-62
2022/11/18 03:50:54;;;;;;;33.00;10.88;;;;;;;;;;6253023;28;20136;-62
2022/11/18 03:54:05;;;;;;;29.10;10.63;;;;;;;;;;6250575;28;20065;-61
2022/11/18 03:57:13;;;;;;;34.70;11.30;;;;;;;;;;6255216;28;20060;-62
2022/11/18 04:00:15;;;;;;;33.85;11.45;;;;;;;;;;6251453;28;21744;-62
2022/11/18 04:03:16;;;;;;;43.00;13.85;;;;;;;;;;6251913;28;20744;-64
2022/11/18 04:06:28;;;;;;;36.90;11.25;;;;;;;;;;6252276;28;20056;-62
2022/11/18 04:09:35;;;;;;;44.90;11.82;;;;;;;;;;6251660;28;20419;-62
2022/11/18 04:12:42;;;;;;;37.75;11.35;;;;;;;;;;6262331;28;20064;-61
2022/11/18 04:15:43;;;;;;;46.55;13.15;;;;;;;;;;6252271;28;20045;-62
2022/11/18 04:18:43;;;;;;;43.88;13.65;;;;;;;;;;6251006;28;20075;-61
2022/11/18 04:21:46;;;;;;;38.30;13.43;;;;;;;;;;6252342;28;20068;-61
2022/11/18 04:24:46;;;;;;;43.25;12.57;;;;;;;;;;6247667;28;20099;-61
2022/11/18 04:27:47;;;;;;;40.30;13.10;;;;;;;;;;6251042;28;20049;-61
2022/11/18 04:30:49;;;;;;;43.20;13.57;;;;;;;;;;6265648;28;20106;-61
2022/11/18 04:33:50;;;;;;;;;;;;;;;;;;6256182;28;20450;-61
2022/11/18 04:36:51;;;;;;;33.50;10.57;;;;;;;;;;6250811;28;19929;-62
2022/11/18 04:39:51;;;;;;;35.60;11.65;;;;;;;;;;6250225;28;20144;-62
2022/11/18 04:42:52;;;;;;;44.28;12.95;;;;;;;;;;6257249;28;20056;-61
2022/11/18 04:45:52;;;;;;;38.85;13.30;;;;;;;;;;6253751;28;20165;-62
2022/11/18 04:48:53;;;;;;;41.15;12.63;;;;;;;;;;6251596;28;20582;-61
2022/11/18 04:51:55;;;;;;;38.33;13.15;;;;;;;;;;6258458;28;20069;-62
2022/11/18 04:54:55;;;;;;;38.35;13.07;;;;;;;;;;6248359;28;20532;-61
2022/11/18 04:57:56;;;;;;;41.47;12.80;;;;;;;;;;6251226;28;20134;-62
2022/11/18 05:00:56;;;;;;;38.17;12.32;;;;;;;;;;6250540;28;20648;-61
2022/11/18 05:04:00;;;;;;;37.95;12.27;;;;;;;;;;6256090;28;20084;-62
2022/11/18 05:07:02;;;;;;;34.05;11.35;;;;;;;;;;6258513;28;20045;-62
2022/11/18 05:10:03;;;;;;;41.50;12.60;;;;;;;;;;6256604;28;20094;-61
2022/11/18 05:13:04;;;;;;;39.05;13.30;;;;;;;;;;6249799;28;20064;-61
2022/11/18 05:16:05;;;;;;;40.10;12.35;;;;;;;;;;6249522;28;20683;-61
2022/11/18 05:19:06;;;;;;;42.00;13.50;;;;;;;;;;6213454;28;1110817;-62
2022/11/18 05:22:07;;;;;;;37.97;12.65;;;;;;;;;;6248724;28;20388;-61
2022/11/18 05:25:07;;;;;;;37.58;12.23;;;;;;;;;;6247785;28;20103;-61
2022/11/18 05:28:08;;;;;;;38.58;12.13;;;;;;;;;;6246835;28;20051;-62
2022/11/18 05:31:12;;;;;;;40.22;12.90;;;;;;;;;;6251373;28;20056;-62
2022/11/18 05:34:13;;;;;;;40.47;13.18;;;;;;;;;;6249923;28;20049;-62
2022/11/18 05:37:14;;;;;;;41.45;14.75;;;;;;;;;;6258671;28;20044;-61
2022/11/18 05:40:14;;;;;;;47.20;14.80;;;;;;;;;;6249654;28;20037;-61
2022/11/18 05:43:15;;;;;;;45.47;14.65;;;;;;;;;;6249987;28;20045;-62
2022/11/18 05:46:16;;;;;;;46.20;15.18;;;;;;;;;;6247257;28;20053;-62
2022/11/18 05:49:16;;;;;;;45.95;14.45;;;;;;;;;;6256555;28;20045;-63
2022/11/18 05:52:17;;;;;;;46.28;13.75;;;;;;;;;;6249541;28;20107;-62
2022/11/18 05:55:19;;;;;;;45.25;14.70;;;;;;;;;;6258690;28;20053;-62
2022/11/18 05:58:20;;;;;;;46.28;15.32;;;;;;;;;;6252042;28;20045;-62
2022/11/18 06:01:27;;;;;;;42.38;14.98;;;;;;;;;;6249478;28;20055;-61
2022/11/18 06:04:52;;;;;;;48.83;15.27;;;;;;;;;;6247291;28;20041;-62
2022/11/18 06:07:56;;;;;;;43.05;15.65;;;;;;;;;;6254705;28;20061;-62
2022/11/18 06:10:57;;;;;;;46.85;16.27;;;;;;;;;;6250658;28;20036;-64
2022/11/18 06:14:06;;;;;;;44.55;14.18;;;;;;;;;;6249183;28;20432;-62
2022/11/18 06:17:13;;;;;;;42.85;15.35;;;;;;;;;;6248405;28;20147;-72
2022/11/18 06:20:20;;;;;;;44.50;14.77;;;;;;;;;;6251865;28;20053;-62
2022/11/18 06:23:21;;;;;;;42.00;14.43;;;;;;;;;;6245738;28;20068;-62
2022/11/18 06:26:22;;;;;;;40.80;14.05;;;;;;;;;;6248867;28;20057;-62
2022/11/18 06:29:23;;;;;;;44.90;14.95;;;;;;;;;;6247641;28;20172;-62
2022/11/18 06:32:23;;;;;;;46.67;15.68;;;;;;;;;;6246280;28;20045;-62
2022/11/18 06:35:24;;;;;;;51.63;16.30;;;;;;;;;;6247646;28;20037;-62
2022/11/18 06:38:25;;;;;;;46.00;14.05;;;;;;;;;;6252283;28;20515;-63
2022/11/18 06:41:25;;;;;;;40.72;14.00;;;;;;;;;;6250838;28;20144;-62
2022/11/18 06:44:26;;;;;;;39.97;13.68;;;;;;;;;;6255235;28;20053;-63
2022/11/18 06:47:27;;;;;;;44.92;15.52;;;;;;;;;;6251775;28;20048;-62
2022/11/18 06:50:27;;;;;;;60.70;15.23;;;;;;;;;;6256115;28;20052;-61
2022/11/18 06:53:28;;;;;;;60.33;16.45;;;;;;;;;;6253571;28;20041;-61
2022/11/18 06:56:29;;;;;;;60.22;17.42;;;;;;;;;;6265577;28;20041;-61
2022/11/18 06:59:29;;;;;;;46.17;14.48;;;;;;;;;;6250744;28;20041;-62
2022/11/18 07:02:30;;;;;;;42.45;13.20;;;;;;;;;;6253376;28;20068;-62
2022/11/18 07:05:30;;;;;;;42.70;13.52;;;;;;;;;;6251393;28;20072;-62
2022/11/18 07:08:31;;;;;;;52.17;14.85;;;;;;;;;;6251439;28;20115;-62
2022/11/18 07:11:32;;;;;;;45.72;14.73;;;;;;;;;;6261726;28;20694;-61
2022/11/18 07:14:32;;;;;;;40.50;13.02;;;;;;;;;;6254064;28;20049;-62
2022/11/18 07:17:33;;;;;;;51.78;18.42;;;;;;;;;;6251408;28;20053;-61
2022/11/18 07:20:34;;;;;;;47.08;15.15;;;;;;;;;;6253548;28;20049;-61
2022/11/18 07:23:35;;;;;;;41.63;14.32;;;;;;;;;;6253045;28;20041;-61
2022/11/18 07:26:35;;;;;;;39.72;14.32;;;;;;;;;;6251167;28;20053;-62
2022/11/18 07:29:36;;;;;;;48.58;16.25;;;;;;;;;;6252806;28;20044;-63
2022/11/18 07:32:37;;;;;;;47.08;16.02;;;;;;;;;;6251170;28;20441;-62
2022/11/18 07:35:37;;;;;;;65.78;18.48;;;;;;;;;;6254354;28;20161;-61
2022/11/18 07:38:38;;;;;;;44.88;15.00;;;;;;;;;;6251706;28;20614;-61
2022/11/18 07:41:40;;;;;;;89.82;24.33;;;;;;;;;;6251971;28;20084;-62
2022/11/18 07:44:40;;;;;;;79.30;23.88;;;;;;;;;;6252405;28;20053;-61
2022/11/18 07:47:41;;;;;;;49.53;15.63;;;;;;;;;;6250848;28;20053;-61
2022/11/18 07:50:41;;;;;;;56.50;19.17;;;;;;;;;;6249923;28;20503;-62
2022/11/18 07:53:42;;;;;;;53.90;17.08;;;;;;;;;;6250135;28;20079;-61
2022/11/18 07:56:43;;;;;;;52.97;15.70;;;;;;;;;;6249140;28;20049;-62
2022/11/18 07:59:44;;;;;;;60.15;15.38;;;;;;;;;;6252563;28;20056;-62
2022/11/18 08:02:48;;;;;;;44.78;13.73;;;;;;;;;;6249113;28;20392;-61
2022/11/18 08:05:49;;;;;;;47.50;14.10;;;;;;;;;;6250429;28;20047;-61
2022/11/18 08:08:49;;;;;;;52.88;14.95;;;;;;;;;;6258671;28;20041;-62
2022/11/18 08:11:50;;;;;;;53.88;16.73;;;;;;;;;;6251932;28;20499;-61
2022/11/18 08:14:50;;;;;;;51.92;14.95;;;;;;;;;;6248951;28;20060;-63
2022/11/18 08:17:51;;;;;;;52.72;15.10;;;;;;;;;;6249873;28;20068;-61
2022/11/18 08:20:52;;;;;;;48.35;15.27;;;;;;;;;;6250290;28;20068;-62
2022/11/18 08:23:55;;;;;;;47.25;15.68;;;;;;;;;;6250164;28;20037;-61
2022/11/18 08:26:56;;;;;;;42.97;14.68;;;;;;;;;;6249183;28;20042;-61
2022/11/18 08:29:56;;;;;;;47.00;14.05;;;;;;;;;;6248209;28;20037;-61
2022/11/18 08:32:57;;;;;;;45.97;15.50;;;;;;;;;;6250481;28;20140;-61
2022/11/18 08:35:57;;;;;;;41.00;14.82;;;;;;;;;;6251758;28;20045;-61
2022/11/18 08:39:00;;;;;;;65.35;20.80;;;;;;;;;;6248943;28;20049;-61
2022/11/18 08:42:01;;;;;;;59.58;18.67;;;;;;;;;;6248091;28;20041;-61
2022/11/18 08:45:03;;;;;;;60.00;17.20;;;;;;;;;;6245834;28;20060;-62
2022/11/18 08:48:04;;;;;;;48.58;13.90;;;;;;;;;;6250998;28;20040;-61
2022/11/18 08:51:04;;;;;;;46.67;14.05;;;;;;;;;;6245681;28;20091;-62
2022/11/18 08:54:05;;;;;;;40.80;13.70;;;;;;;;;;6250805;28;20590;-61
2022/11/18 08:57:05;;;;;;;53.42;15.15;;;;;;;;;;6252728;28;20052;-62
2022/11/18 09:00:07;;;;;;;48.05;15.93;;;;;;;;;;6244386;28;20141;-62
2022/11/18 09:03:07;;;;;;;45.70;15.25;;;;;;;;;;6255676;28;20060;-61
2022/11/18 09:06:10;;;;;;;57.30;16.13;;;;;;;;;;6247892;28;20037;-61
2022/11/18 09:09:11;;;;;;;48.33;15.40;;;;;;;;;;6249915;28;20128;-61
2022/11/18 09:12:13;;;;;;;53.28;16.45;;;;;;;;;;6249817;28;20708;-61
2022/11/18 09:15:14;;;;;;;;;;;;;;;;;;6250229;28;20091;-62
2022/11/18 09:18:15;;;;;;;60.35;16.50;;;;;;;;;;6248044;28;19956;-62
2022/11/18 09:21:16;;;;;;;45.85;13.95;;;;;;;;;;6249906;28;20050;-61
2022/11/18 09:24:17;;;;;;;51.13;15.88;;;;;;;;;;6247565;28;20460;-62
2022/11/18 09:27:18;;;;;;;59.83;18.55;;;;;;;;;;6245482;28;20042;-61
2022/11/18 09:30:18;;;;;;;63.33;16.50;;;;;;;;;;6249016;28;20076;-61
2022/11/18 09:33:20;;;;;;;75.53;18.10;;;;;;;;;;6250052;28;20057;-62
2022/11/18 09:36:22;;;;;;;67.85;16.92;;;;;;;;;;6248116;28;20835;-62
2022/11/18 09:39:24;;;;;;;62.45;17.50;;;;;;;;;;6249042;28;20045;-61
2022/11/18 09:42:37;;;;;;;52.50;15.10;;;;;;;;;;6249169;28;20136;-61
2022/11/18 09:45:43;;;;;;;52.25;17.15;;;;;;;;;;6249933;28;20050;-61
2022/11/18 09:52:13;;;;;;;61.60;18.92;;;;;;;;;;6248129;28;20049;-62
2022/11/18 09:55:16;;;;;;;66.07;16.25;;;;;;;;;;6245128;28;20045;-61
2022/11/18 09:58:24;;;;;;;91.72;25.50;;;;;;;;;;6243625;28;20056;-62
2022/11/18 10:01:24;;;;;;;72.25;20.08;;;;;;;;;;6246103;28;20081;-61
2022/11/18 10:04:27;;;;;;;81.53;19.45;;;;;;;;;;6249586;28;20118;-61
2022/11/18 10:07:57;;;;;;;58.72;16.65;;;;;;;;;;6247695;28;20800;-62
2022/11/18 10:11:04;;;;;;;59.42;18.35;;;;;;;;;;6239100;28;20040;-61
2022/11/18 10:14:23;;;;;;;79.53;19.70;;;;;;;;;;6251322;28;20049;-62
2022/11/18 10:18:06;;;;;;;61.67;16.92;;;;;;;;;;6267409;28;20051;-61
2022/11/18 10:21:36;;;;;;;49.50;14.80;;;;;;;;;;6217235;28;20084;-61
2022/11/18 10:24:44;;;;;;;65.00;19.73;;;;;;;;;;6247359;28;20041;-62
2022/11/18 10:27:47;;;;;;;64.47;18.67;;;;;;;;;;6249060;28;20566;-61
2022/11/18 10:30:48;;;;;;;62.28;18.63;;;;;;;;;;6247609;28;20094;-62
2022/11/18 10:33:57;;;;;;;64.97;19.50;;;;;;;;;;6246505;28;20045;-64
2022/11/18 10:37:13;;;;;;;47.85;15.57;;;;;;;;;;6245293;28;20041;-62
2022/11/18 10:40:24;;;;;;;59.40;17.55;;;;;;;;;;6247571;28;20045;-62
2022/11/18 10:43:46;;;;;;;57.58;16.27;;;;;;;;;;6248252;28;20051;-61
2022/11/18 10:46:46;;;;;;;63.33;18.35;;;;;;;;;;6251781;28;20915;-62
2022/11/18 10:49:47;;;;;;;66.30;19.00;;;;;;;;;;6245911;28;20084;-61
2022/11/18 10:52:52;;;;;;;80.32;23.70;;;;;;;;;;6248809;28;20652;-62
2022/11/18 10:56:05;;;;;;;70.72;22.95;;;;;;;;;;6247307;28;20060;-61
2022/11/18 10:59:31;;;;;;;69.00;23.15;;;;;;;;;;6246305;28;20049;-61
2022/11/18 11:02:37;;;;;;;80.13;24.20;;;;;;;;;;6243552;28;20472;-62
2022/11/18 11:05:38;;;;;;;77.28;23.17;;;;;;;;;;6248035;28;20577;-61
2022/11/18 11:08:55;;;;;;;81.70;23.92;;;;;;;;;;6247202;28;20048;-62
2022/11/18 11:12:03;;;;;;;73.93;22.35;;;;;;;;;;6249172;28;20075;-62
2022/11/18 11:15:14;;;;;;;77.13;21.73;;;;;;;;;;6244689;28;20059;-62
2022/11/18 11:18:40;;;;;;;86.20;25.30;;;;;;;;;;6245301;28;20858;-61
2022/11/18 11:21:41;;;;;;;86.80;24.73;;;;;;;;;;6248988;28;20049;-60
2022/11/18 11:24:41;;;;;;;88.75;25.52;;;;;;;;;;6248940;28;20064;-63
2022/11/18 11:27:51;;;;;;;87.35;26.52;;;;;;;;;;6252819;28;20103;-61
2022/11/18 11:31:23;;;;;;;91.05;23.10;;;;;;;;;;6254639;28;20053;-63
2022/11/18 11:34:23;;;;;;;88.60;22.98;;;;;;;;;;6252459;28;20037;-60
2022/11/18 11:37:56;;;;;;;84.90;23.33;;;;;;;;;;6251597;28;20068;-60
2022/11/18 11:41:08;;;;;;;76.28;24.30;;;;;;;;;;6252173;28;20600;-61
2022/11/18 11:44:31;;;;;;;83.93;24.67;;;;;;;;;;6250265;28;20072;-61
2022/11/18 11:47:55;;;;;;;77.38;22.73;;;;;;;;;;6253070;28;20056;-61
2022/11/18 11:51:18;;;;;;;79.53;23.77;;;;;;;;;;6251942;28;20053;-60
2022/11/18 11:54:57;;;;;;;84.03;23.35;;;;;;;;;;6248477;28;20041;-62
2022/11/18 11:58:12;;;;;;;82.40;24.25;;;;;;;;;;6250491;28;20511;-63
2022/11/18 12:01:30;;;;;;;89.95;27.70;;;;;;;;;;6252291;28;20045;-62
2022/11/18 12:04:42;;;;;;;83.75;24.30;;;;;;;;;;6251708;28;20514;-62
2022/11/18 12:08:15;;;;;;;79.35;23.60;;;;;;;;;;6250094;28;20518;-62
2022/11/18 12:11:29;;;;;;;75.22;22.52;;;;;;;;;;6236063;28;20047;-62
2022/11/18 12:14:39;;;;;;;85.38;24.27;;;;;;;;;;6252692;28;20048;-62
2022/11/18 12:17:51;;;;;;;91.72;24.77;;;;;;;;;;6249877;28;20385;-62
2022/11/18 12:20:53;;;;;;;86.10;23.92;;;;;;;;;;6248675;28;20531;-64
2022/11/18 12:24:24;;;;;;;78.82;24.48;;;;;;;;;;6252186;28;20120;-62
2022/11/18 12:27:29;;;;;;;76.65;22.08;;;;;;;;;;6249403;28;20055;-62
2022/11/18 12:30:29;;;;;;;67.68;21.60;;;;;;;;;;6240971;28;20052;-62
2022/11/18 12:33:30;;;;;;;73.47;24.95;;;;;;;;;;6250721;28;20136;-62
2022/11/18 12:36:32;;;;;;;67.95;21.77;;;;;;;;;;6251813;28;20040;-62
2022/11/18 12:39:39;;;;;;;71.10;20.25;;;;;;;;;;6248160;28;20119;-62
2022/11/18 12:46:04;;;;;;;99.78;26.10;;;;;;;;;;6248412;28;20047;-62
2022/11/18 12:49:20;;;;;;;105.70;28.20;;;;;;;;;;6250377;28;20445;-60
2022/11/18 12:52:29;;;;;;;90.43;25.98;;;;;;;;;;6249325;28;20606;-60
2022/11/18 12:55:32;;;;;;;84.63;26.27;;;;;;;;;;6251654;28;20916;-61
2022/11/18 12:58:33;;;;;;;74.55;21.83;;;;;;;;;;6249156;28;20053;-61
2022/11/18 13:01:34;;;;;;;80.43;24.40;;;;;;;;;;6249800;28;20069;-61
2022/11/18 13:04:35;;;;;;;85.95;23.55;;;;;;;;;;6248751;28;20412;-61
2022/11/18 13:18:18;;;;;;;72.35;23.02;;;;;;;;;;6266780;28;20565;-61
2022/11/18 13:24:49;;;;;;;73.85;20.83;;;;;;;;;;6249708;28;20041;-61
2022/11/18 13:28:20;;;;;;;68.00;22.02;;;;;;;;;;6248380;28;20081;-62
2022/11/18 13:31:29;;;;;;;68.75;20.63;;;;;;;;;;6250781;28;20537;-62
2022/11/18 13:34:31;;;;;;;55.72;16.85;;;;;;;;;;6250468;28;20061;-62
2022/11/18 13:37:35;;;;;;;60.60;19.75;;;;;;;;;;6250177;28;20045;-62
2022/11/18 13:44:10;;;;;;;67.25;18.95;;;;;;;;;;6249030;28;20045;-62
2022/11/18 13:47:22;;;;;;;69.28;20.85;;;;;;;;;;6249612;28;20057;-62
2022/11/18 13:50:32;;;;;;;66.38;20.38;;;;;;;;;;6246050;28;20045;-62
2022/11/18 13:53:37;;;;;;;61.50;20.58;;;;;;;;;;6249531;28;20098;-62
2022/11/18 13:56:39;;;;;;;62.22;20.20;;;;;;;;;;6250771;28;20063;-62
2022/11/18 13:59:41;;;;;;;58.03;19.95;;;;;;;;;;6253416;28;20074;-61
2022/11/18 14:02:45;;;;;;;62.50;21.15;;;;;;;;;;6253899;28;20064;-62
2022/11/18 14:05:53;;;;;;;67.43;21.05;;;;;;;;;;6253942;28;20890;-63
2022/11/18 14:09:27;;;;;;;71.95;21.95;;;;;;;;;;6253121;28;20068;-61
2022/11/18 14:12:31;;;;;;;85.50;24.55;;;;;;;;;;6241010;28;20106;-63
2022/11/18 14:15:34;;;;;;;66.75;21.08;;;;;;;;;;6258648;28;20056;-63
2022/11/18 14:18:37;;;;;;;74.60;22.70;;;;;;;;;;6257365;28;20111;-62
2022/11/18 14:21:38;;;;;;;68.75;20.70;;;;;;;;;;6250826;28;20612;-62
2022/11/18 14:24:40;;;;;;;69.65;21.80;;;;;;;;;;6256000;28;20061;-63
2022/11/18 14:27:41;;;;;;;65.40;20.50;;;;;;;;;;6261281;28;20059;-64
2022/11/18 14:30:59;;;;;;;67.65;22.58;;;;;;;;;;6252706;28;20052;-62
2022/11/18 14:34:24;;;;;;;64.80;21.63;;;;;;;;;;6257009;28;20098;-62
2022/11/18 14:37:25;;;;;;;66.63;21.08;;;;;;;;;;6252206;28;20050;-62
2022/11/18 14:40:26;;;;;;;61.95;20.60;;;;;;;;;;6254109;28;20053;-62
2022/11/18 14:43:26;;;;;;;72.07;21.08;;;;;;;;;;6252658;28;20082;-63
2022/11/18 14:46:27;;;;;;;76.93;21.85;;;;;;;;;;6255806;28;20495;-62
2022/11/18 14:49:30;;;;;;;65.10;20.15;;;;;;;;;;6238699;28;20077;-61
2022/11/18 14:52:31;;;;;;;70.32;21.08;;;;;;;;;;6254233;28;20052;-61
2022/11/18 14:55:31;;;;;;;94.78;24.88;;;;;;;;;;6249329;28;20874;-62
2022/11/18 14:58:32;;;;;;;91.15;24.20;;;;;;;;;;6252373;28;20055;-63
2022/11/18 15:01:33;;;;;;;65.60;21.00;;;;;;;;;;6252594;28;20048;-64
2022/11/18 15:04:33;;;;;;;78.10;21.20;;;;;;;;;;6257007;28;20049;-63
2022/11/18 15:07:34;;;;;;;85.88;23.35;;;;;;;;;;6255316;28;20408;-62
2022/11/18 15:10:35;;;;;;;99.35;25.75;;;;;;;;;;6257683;28;20076;-64
2022/11/18 15:13:36;;;;;;;67.95;21.38;;;;;;;;;;6256207;28;20415;-63
2022/11/18 15:16:37;;;;;;;62.00;19.33;;;;;;;;;;6260311;28;20053;-64
2022/11/18 15:19:39;;;;;;;59.22;18.27;;;;;;;;;;6258111;28;20049;-64
2022/11/18 15:22:40;;;;;;;49.40;16.00;;;;;;;;;;6258169;28;20055;-64
2022/11/18 15:25:40;;;;;;;48.45;15.13;;;;;;;;;;6258354;28;20487;-64
2022/11/18 15:28:41;;;;;;;47.55;14.43;;;;;;;;;;6259543;28;20502;-62
2022/11/18 15:31:41;;;;;;;48.38;15.60;;;;;;;;;;6257599;28;20060;-63
2022/11/18 15:34:42;;;;;;;47.42;14.27;;;;;;;;;;6258317;28;20098;-63
2022/11/18 15:37:43;;;;;;;44.47;14.48;;;;;;;;;;6258745;28;20049;-62
2022/11/18 15:40:43;;;;;;;46.05;15.52;;;;;;;;;;6257584;28;20152;-62
2022/11/18 15:43:44;;;;;;;49.63;16.50;;;;;;;;;;6256722;28;20977;-61
2022/11/18 15:46:46;;;;;;;55.28;16.98;;;;;;;;;;6254961;28;20048;-63
2022/11/18 15:49:47;;;;;;;;;;;;;;;;;;6257527;28;20053;-62
2022/11/18 15:52:47;;;;;;;50.60;15.63;;;;;;;;;;6266727;28;19935;-63
2022/11/18 15:55:48;;;;;;;58.03;15.68;;;;;;;;;;6271185;28;20056;-62
2022/11/18 15:59:03;;;;;;;49.60;16.52;;;;;;;;;;6269723;28;20143;-62
2022/11/18 16:02:03;;;;;;;50.30;15.40;;;;;;;;;;6269159;28;20052;-64
2022/11/18 16:05:04;;;;;;;60.85;17.77;;;;;;;;;;6271628;28;20129;-64
2022/11/18 16:08:05;;;;;;;56.00;17.13;;;;;;;;;;6269288;28;20059;-61
2022/11/18 16:14:25;;;;;;;51.33;17.38;;;;;;;;;;6268743;28;20553;-63
2022/11/18 16:17:25;;;;;;;57.47;18.77;;;;;;;;;;6267503;28;20088;-59
2022/11/18 16:20:27;;;;;;;58.42;19.45;;;;;;;;;;6269990;28;20052;-63
2022/11/18 16:23:27;;;;;;;67.75;20.52;;;;;;;;;;6271339;28;20076;-67
2022/11/18 16:26:29;;;;;;;65.95;20.33;;;;;;;;;;6267253;28;20049;-63
2022/11/18 16:29:30;;;;;;;53.60;17.10;;;;;;;;;;6267196;28;20053;-66
2022/11/18 16:32:31;;;;;;;46.05;14.82;;;;;;;;;;6269409;28;20428;-66
2022/11/18 16:35:31;;;;;;;63.08;17.00;;;;;;;;;;6265617;28;20388;-65
2022/11/18 16:38:32;;;;;;;49.45;16.48;;;;;;;;;;6258772;28;20087;-66
2022/11/18 16:41:34;;;;;;;47.63;15.75;;;;;;;;;;6264843;28;20052;-65
2022/11/18 16:44:35;;;;;;;47.83;14.45;;;;;;;;;;6266673;28;20049;-68
2022/11/18 16:47:37;;;;;;;53.58;17.52;;;;;;;;;;6266260;28;20041;-64
2022/11/18 16:50:37;;;;;;;51.58;16.98;;;;;;;;;;6274792;28;20155;-62
2022/11/18 16:53:38;;;;;;;60.97;17.63;;;;;;;;;;6266805;28;20095;-66
2022/11/18 16:56:39;;;;;;;53.28;15.73;;;;;;;;;;6268570;28;20048;-64
2022/11/18 16:59:40;;;;;;;62.57;18.60;;;;;;;;;;6268366;28;20052;-64
2022/11/18 17:02:40;;;;;;;74.57;20.35;;;;;;;;;;6264256;28;20060;-64
2022/11/18 17:05:41;;;;;;;75.80;19.17;;;;;;;;;;6272834;28;20099;-62
2022/11/18 17:08:41;;;;;;;60.90;17.60;;;;;;;;;;6269496;28;20052;-63
2022/11/18 17:11:43;;;;;;;56.92;17.67;;;;;;;;;;6265742;28;20084;-62
2022/11/18 17:14:43;;;;;;;46.45;15.95;;;;;;;;;;6266832;28;20129;-62
2022/11/18 17:17:44;;;;;;;56.03;17.23;;;;;;;;;;6274942;28;20106;-61
2022/11/18 17:20:45;;;;;;;57.70;18.40;;;;;;;;;;6266636;28;20049;-63
2022/11/18 17:23:47;;;;;;;56.58;17.77;;;;;;;;;;6268594;28;20052;-59
2022/11/18 17:26:48;;;;;;;68.90;20.73;;;;;;;;;;6271125;28;20480;-63
2022/11/18 17:29:49;;;;;;;65.30;21.20;;;;;;;;;;6267720;28;20052;-63
2022/11/18 17:32:50;;;;;;;60.60;18.35;;;;;;;;;;6262219;28;20049;-62
2022/11/18 17:36:01;;;;;;;70.03;22.50;;;;;;;;;;6261882;28;20164;-62
2022/11/18 17:39:02;;;;;;;63.83;20.13;;;;;;;;;;6273010;28;20055;-62
2022/11/18 17:42:12;;;;;;;54.33;17.13;;;;;;;;;;6266599;28;20501;-60
2022/11/18 17:45:13;;;;;;;70.65;20.58;;;;;;;;;;6270195;28;20048;-61
2022/11/18 17:48:14;;;;;;;64.82;19.33;;;;;;;;;;6269624;28;20859;-60
2022/11/18 17:51:14;;;;;;;57.20;18.33;;;;;;;;;;6265636;28;20055;-61
2022/11/18 17:54:15;;;;;;;57.05;19.08;;;;;;;;;;6265374;28;20495;-61
2022/11/18 17:57:15;;;;;;;66.00;20.77;;;;;;;;;;6269206;28;20114;-61
2022/11/18 18:00:17;;;;;;;56.35;17.85;;;;;;;;;;6264912;28;20045;-62
2022/11/18 18:03:17;;;;;;;60.47;19.90;;;;;;;;;;6265650;28;20060;-61
2022/11/18 18:06:19;;;;;;;59.58;19.17;;;;;;;;;;6268589;28;20045;-63
2022/11/18 18:09:23;;;;;;;59.45;20.27;;;;;;;;;;6264881;28;20056;-62
2022/11/18 18:15:43;;;;;;;62.33;18.90;;;;;;;;;;6265414;28;20055;-60
2022/11/18 18:18:43;;;;;;;55.28;19.40;;;;;;;;;;6268910;28;20412;-61
2022/11/18 18:21:44;;;;;;;49.47;16.00;;;;;;;;;;6263523;28;20052;-64
2022/11/18 18:24:45;;;;;;;56.03;18.15;;;;;;;;;;6271891;28;20052;-66
2022/11/18 18:27:45;;;;;;;54.97;18.17;;;;;;;;;;6271708;28;20060;-61
2022/11/18 18:30:46;;;;;;;58.70;16.35;;;;;;;;;;6263139;28;20159;-64
2022/11/18 18:33:47;;;;;;;50.13;16.55;;;;;;;;;;6270935;28;20052;-67